Hauptseite
METAR-TAF:

METAR-TAF

Flughäfen :

Flughafen Mauritius

Mauritius, Mauritius

Breite: 20-26S, Länge: 057-40E, Höhe: 55 m

Beobachtung

Neuester Wetterbericht von vor 25 Minuten, um 05:00 UTC
Wind 13 kt aus Ost/Südost
Temperatur 29°C
Luftfeuchtigkeit 66%
Luftdruck 1018 hPa
Sichtweite 10 km oder mehr
Aufgelockert bewölkt in der Höhe von 1600 ft
Aufgelockert bewölkt in der Höhe von 10000 ft

METAR: FIMP 190500Z 11013KT 9999 SCT016 SCT100 29/22 Q1018

Zeit: 09:25 (05:25 UTC)

Prognose

Neuester Wetterbericht von vor 5 Stunden und 55 Minuten, um 23:30 UTC
Gültige Prognose vom 19 um 00 UTC bis 20 um 06 UTC
Wind 10 kt aus Ost
Sichtweite 10 km oder mehr
Aufgelockert bewölkt in der Höhe von 1700 ft

TAF: FIMP 182330Z 1900/2006 09010KT 9999 SCT017

Wetterbeobachtungen und Prognosen von mehr als 4000 Flughäfen (METAR und TAF Bericht).

Die verfügbaren Stationen werden durch gelbe und rote Markierungen auf der Karte dargestellt.

Führen Sie die Maus auf sie, um den Namen der Station zu sehen.

Darauf klicken, um die Beobachtung von Wetterbeobachtungen und Prognosen zu sehen.

Um die Karte zu ändern : klicken Sie auf den grünen Tasten mit einem schwarzen Kreuz Zum Vergrößern, auf den grünen Button mit einem Gedankenstrich zu verkleinern, oder auf die grünen Pfeile für benachbarte Karten.


METAR-TAF: